Time;durP1;ratioP1;P1;durP2;ratioP2;P2;SDS_P1;SDS_P2;PMS_P1;PMS_P2;Temp;Humidity;BMP_temperature;BMP_pressure;BME280_temperature;BME280_humidity;BME280_pressure;Samples;Min_cycle;Max_cycle;Signal;HPM_P1;HPM_P2
2022/09/01 00:02:09;;;;;;;12.87;3.80;;;17.30;82.50;;;;;;5072980;28;20179;-78
2022/09/01 00:04:38;;;;;;;11.57;3.43;;;17.30;82.40;;;;;;5063120;28;20210;-78
2022/09/01 00:07:07;;;;;;;16.43;4.17;;;17.30;82.50;;;;;;5064383;28;20179;-78
2022/09/01 00:09:35;;;;;;;16.50;4.03;;;17.50;83.10;;;;;;5059871;28;20183;-76
2022/09/01 00:12:03;;;;;;;14.43;4.07;;;17.50;82.40;;;;;;5056441;28;20191;-74
2022/09/01 00:14:35;;;;;;;12.43;3.77;;;17.30;82.50;;;;;;5059268;28;20182;-75
2022/09/01 00:17:06;;;;;;;18.70;4.50;;;17.30;81.90;;;;;;5058099;28;20183;-75
2022/09/01 00:19:35;;;;;;;13.63;4.23;;;17.30;82.30;;;;;;5063225;28;20184;-75
2022/09/01 00:22:03;;;;;;;11.67;3.67;;;17.30;82.50;;;;;;5057099;28;20188;-75
2022/09/01 00:24:31;;;;;;;10.77;3.60;;;17.50;82.60;;;;;;5052374;28;20305;-77
2022/09/01 00:26:58;;;;;;;13.37;3.60;;;17.50;82.60;;;;;;5053547;28;20195;-76
2022/09/01 00:29:26;;;;;;;14.30;3.93;;;17.70;82.20;;;;;;5058434;28;20199;-78
2022/09/01 00:31:54;;;;;;;14.20;3.77;;;17.70;81.90;;;;;;5053155;28;20184;-77
2022/09/01 00:34:21;;;;;;;16.57;3.77;;;17.80;81.10;;;;;;5054136;28;20180;-75
2022/09/01 00:36:49;;;;;;;11.40;3.40;;;18.20;80.20;;;;;;5053759;28;20222;-78
2022/09/01 00:39:17;;;;;;;12.53;3.07;;;18.50;78.50;;;;;;5053296;28;20650;-75
2022/09/01 00:41:46;;;;;;;10.17;2.73;;;19.00;77.00;;;;;;5060069;28;20228;-75
2022/09/01 00:44:17;;;;;;;14.67;3.30;;;18.80;75.70;;;;;;5053562;28;20192;-75
2022/09/01 00:46:51;;;;;;;10.80;3.07;;;18.60;76.40;;;;;;5063592;28;20190;-76
2022/09/01 00:49:48;;;;;;;12.80;4.23;;;18.90;76.80;;;;;;5059393;28;20176;-77
2022/09/01 00:52:42;;;;;;;13.57;3.57;;;19.10;75.30;;;;;;5051315;28;20678;-76
2022/09/01 00:55:16;;;;;;;15.27;3.20;;;18.80;75.40;;;;;;5059832;28;20191;-79
2022/09/01 00:57:44;;;;;;;16.57;3.57;;;18.90;76.60;;;;;;5073136;28;20194;-80
2022/09/01 01:00:21;;;;;;;11.80;3.10;;;19.30;75.30;;;;;;5060611;28;20179;-80
2022/09/01 01:02:54;;;;;;;16.77;3.93;;;19.40;74.50;;;;;;5053841;28;20226;-81
2022/09/01 01:05:33;;;;;;;12.20;3.27;;;19.70;76.40;;;;;;5052644;28;20333;-79
2022/09/01 01:08:03;;;;;;;8.50;3.10;;;19.80;75.10;;;;;;5063497;28;20175;-77
2022/09/01 01:10:34;;;;;;;11.37;3.40;;;20.00;74.10;;;;;;5067230;28;20207;-82
2022/09/01 01:13:01;;;;;;;9.90;3.03;;;20.00;73.30;;;;;;5067999;28;20191;-83
2022/09/01 01:15:29;;;;;;;11.00;3.10;;;19.80;69.70;;;;;;5071069;28;20672;-81
2022/09/01 01:17:56;;;;;;;12.47;3.00;;;19.70;71.40;;;;;;5053398;28;20540;-76
2022/09/01 01:23:49;;;;;;;17.03;3.10;;;20.30;70.40;;;;;;5072162;28;20254;-76
2022/09/01 01:26:17;;;;;;;10.13;3.60;;;20.30;71.00;;;;;;5067746;28;20234;-77
2022/09/01 01:28:44;;;;;;;8.37;3.00;;;20.80;70.30;;;;;;5067486;28;20184;-79
2022/09/01 01:31:21;;;;;;;13.40;3.40;;;20.80;68.70;;;;;;5065724;28;20187;-77
2022/09/01 01:33:51;;;;;;;11.57;3.13;;;20.70;69.50;;;;;;5065226;28;20187;-75
2022/09/01 01:36:34;;;;;;;11.33;3.20;;;20.80;69.80;;;;;;5060610;28;20206;-77
2022/09/01 01:39:07;;;;;;;12.67;4.27;;;21.20;68.70;;;;;;5058523;28;20536;-77
2022/09/01 01:41:39;;;;;;;12.17;3.30;;;21.20;68.10;;;;;;5066627;28;20357;-80
2022/09/01 01:44:07;;;;;;;11.63;3.43;;;20.90;69.20;;;;;;5064089;28;20241;-75
2022/09/01 01:46:48;;;;;;;11.43;3.23;;;20.60;69.00;;;;;;5059691;28;20201;-78
2022/09/01 01:49:19;;;;;;;11.83;3.43;;;20.20;70.00;;;;;;5056405;28;20593;-75
2022/09/01 01:51:49;;;;;;;14.90;4.00;;;19.90;71.50;;;;;;5056346;28;20185;-78
2022/09/01 01:54:18;;;;;;;9.53;4.00;;;19.80;71.40;;;;;;5055550;28;20176;-77
2022/09/01 01:56:46;;;;;;;11.97;3.60;;;19.80;71.70;;;;;;5056687;28;20619;-76
2022/09/01 01:59:15;;;;;;;13.10;3.93;;;19.80;72.30;;;;;;5057124;28;20749;-76
2022/09/01 02:01:47;;;;;;;10.93;3.27;;;19.80;72.00;;;;;;5078212;28;20183;-76
2022/09/01 02:04:15;;;;;;;11.07;3.47;;;19.50;72.50;;;;;;5061745;28;20273;-76
2022/09/01 02:06:46;;;;;;;10.30;3.23;;;19.40;73.80;;;;;;5070841;28;20184;-76
2022/09/01 02:09:17;;;;;;;14.70;4.53;;;20.00;72.00;;;;;;5055935;28;20183;-76
2022/09/01 02:11:45;;;;;;;15.67;3.47;;;19.80;71.00;;;;;;5056121;28;20172;-76
2022/09/01 02:14:14;;;;;;;13.97;3.60;;;19.70;71.90;;;;;;5072676;28;20184;-76
2022/09/01 02:16:42;;;;;;;10.63;3.40;;;19.40;73.00;;;;;;5058428;28;20183;-76
2022/09/01 02:19:11;;;;;;;14.77;3.60;;;19.70;73.70;;;;;;5054457;28;20188;-76
2022/09/01 02:21:53;;;;;;;19.03;7.87;;;20.10;71.90;;;;;;5055635;28;20294;-77
2022/09/01 02:24:22;;;;;;;15.30;4.83;;;20.80;71.30;;;;;;5054510;28;20172;-75
2022/09/01 02:26:50;;;;;;;13.77;5.77;;;21.10;68.50;;;;;;5056091;28;20539;-77
2022/09/01 02:29:28;;;;;;;13.43;3.23;;;21.50;68.30;;;;;;5068925;28;20187;-76
2022/09/01 02:31:56;;;;;;;12.00;3.20;;;21.90;66.20;;;;;;5069352;28;20182;-77
2022/09/01 02:34:26;;;;;;;11.00;3.47;;;21.80;66.00;;;;;;5069237;28;20178;-80
2022/09/01 02:36:56;;;;;;;14.47;3.20;;;21.30;68.00;;;;;;5069851;28;20182;-78
2022/09/01 02:39:32;;;;;;;10.23;3.17;;;21.10;68.30;;;;;;5055374;28;20215;-77
2022/09/01 02:42:00;;;;;;;13.60;3.80;;;21.20;69.10;;;;;;5056344;28;20223;-77
2022/09/01 02:44:29;;;;;;;13.97;3.80;;;21.50;67.20;;;;;;5075555;28;20347;-75
2022/09/01 02:46:57;;;;;;;19.00;3.87;;;21.60;66.70;;;;;;5065871;28;20238;-74
2022/09/01 02:49:27;;;;;;;11.50;3.40;;;21.80;65.80;;;;;;5058308;28;20230;-77
2022/09/01 02:51:58;;;;;;;15.80;3.87;;;21.60;67.10;;;;;;5055316;28;20192;-75
2022/09/01 02:54:28;;;;;;;9.00;2.80;;;22.10;65.50;;;;;;5058544;28;20217;-78
2022/09/01 02:56:56;;;;;;;12.50;2.83;;;22.00;65.20;;;;;;5073783;28;20176;-76
2022/09/01 02:59:26;;;;;;;13.10;3.20;;;21.50;67.30;;;;;;5071663;28;20526;-79
2022/09/01 03:01:55;;;;;;;14.57;3.67;;;21.60;66.90;;;;;;5072710;28;20175;-79
2022/09/01 03:04:25;;;;;;;13.57;3.60;;;21.60;66.60;;;;;;5055107;28;20203;-78
2022/09/01 03:06:53;;;;;;;11.27;2.77;;;21.50;67.30;;;;;;5055221;28;20556;-75
2022/09/01 03:09:21;;;;;;;13.40;3.37;;;21.30;67.50;;;;;;5054780;28;20225;-77
2022/09/01 03:11:52;;;;;;;11.17;3.37;;;21.40;66.40;;;;;;5055006;28;20172;-75
2022/09/01 03:14:21;;;;;;;13.40;3.57;;;21.20;67.20;;;;;;5060568;28;20160;-75
2022/09/01 03:16:49;;;;;;;10.17;2.90;;;21.30;67.90;;;;;;5064501;28;20646;-75
2022/09/01 03:19:17;;;;;;;10.87;3.23;;;21.40;67.10;;;;;;5073399;28;20176;-79
2022/09/01 03:21:46;;;;;;;14.93;3.40;;;21.00;67.80;;;;;;5075360;28;20568;-78
2022/09/01 03:24:16;;;;;;;14.83;3.80;;;20.50;69.60;;;;;;5058430;28;20694;-76
2022/09/01 03:26:46;;;;;;;13.70;3.83;;;20.70;70.00;;;;;;5060082;28;20179;-78
2022/09/01 03:29:13;;;;;;;13.43;2.70;;;20.90;69.00;;;;;;5059320;28;20303;-78
2022/09/01 03:31:41;;;;;;;13.93;2.90;;;20.70;69.30;;;;;;5075007;28;20688;-78
2022/09/01 03:34:09;;;;;;;14.50;3.77;;;20.40;69.20;;;;;;5086741;28;20170;-77
2022/09/01 03:36:38;;;;;;;16.83;3.67;;;20.40;68.50;;;;;;5067631;28;20196;-76
2022/09/01 03:39:08;;;;;;;12.70;3.33;;;20.20;69.80;;;;;;5085149;28;20172;-77
2022/09/01 03:41:36;;;;;;;16.20;3.73;;;20.20;69.30;;;;;;5085360;28;20309;-78
2022/09/01 03:44:04;;;;;;;14.43;3.83;;;20.40;69.10;;;;;;5055360;28;20170;-77
2022/09/01 03:46:34;;;;;;;14.90;3.73;;;20.40;68.80;;;;;;5056363;28;20208;-77
2022/09/01 03:49:04;;;;;;;12.53;3.20;;;20.20;69.50;;;;;;5057923;28;20247;-78
2022/09/01 03:51:32;;;;;;;13.77;3.10;;;20.00;70.30;;;;;;5078896;28;20512;-78
2022/09/01 03:53:59;;;;;;;15.13;3.73;;;19.90;71.10;;;;;;5078521;28;20189;-76
2022/09/01 03:56:28;;;;;;;17.17;3.50;;;20.10;70.40;;;;;;5062047;28;20212;-76
2022/09/01 03:58:58;;;;;;;16.60;3.80;;;20.30;69.20;;;;;;5059545;28;20236;-75
2022/09/01 04:01:27;;;;;;;12.40;3.93;;;20.30;69.40;;;;;;5063751;28;20184;-75
2022/09/01 04:03:55;;;;;;;12.23;3.63;;;20.30;68.80;;;;;;5070359;28;20193;-76
2022/09/01 04:06:22;;;;;;;11.10;3.77;;;20.10;69.00;;;;;;5076161;28;20689;-78
2022/09/01 04:08:56;;;;;;;11.97;3.50;;;20.00;70.10;;;;;;5074280;28;20519;-76
2022/09/01 04:11:24;;;;;;;18.80;3.83;;;19.70;70.80;;;;;;5065339;28;20771;-76
2022/09/01 04:13:52;;;;;;;17.90;3.90;;;19.70;71.40;;;;;;5063712;28;20198;-75
2022/09/01 04:19:24;;;;;;;19.13;3.27;;;21.10;68.40;;;;;;5068177;28;20202;-74
2022/09/01 04:21:55;;;;;;;15.83;3.20;;;21.80;64.80;;;;;;5063619;28;20179;-74
2022/09/01 04:24:26;;;;;;;13.93;3.33;;;21.80;64.60;;;;;;5065991;28;20277;-74
2022/09/01 04:26:57;;;;;;;15.40;4.00;;;22.10;63.20;;;;;;5061320;28;20200;-76
2022/09/01 04:29:28;;;;;;;14.67;3.37;;;22.50;63.40;;;;;;5059770;28;20557;-78
2022/09/01 04:32:04;;;;;;;12.10;3.43;;;23.00;60.80;;;;;;5067645;28;20228;-76
2022/09/01 04:34:36;;;;;;;12.77;3.30;;;23.30;59.80;;;;;;5066434;28;20184;-75
2022/09/01 04:37:08;;;;;;;13.97;3.03;;;23.00;60.40;;;;;;5066595;28;20230;-75
2022/09/01 04:39:37;;;;;;;13.90;3.10;;;22.80;61.60;;;;;;5064079;28;20684;-75
2022/09/01 04:42:07;;;;;;;13.70;3.23;;;23.30;59.80;;;;;;5072140;28;20273;-77
2022/09/01 04:44:35;;;;;;;16.90;3.10;;;23.00;60.20;;;;;;5065744;28;20223;-75
2022/09/01 04:47:05;;;;;;;10.33;2.83;;;22.80;60.60;;;;;;5064498;28;20188;-75
2022/09/01 04:49:40;;;;;;;13.97;3.37;;;23.10;59.50;;;;;;5064380;28;20195;-75
2022/09/01 04:52:08;;;;;;;13.57;3.10;;;23.10;59.00;;;;;;5068375;28;20258;-77
2022/09/01 04:54:38;;;;;;;9.30;2.60;;;22.80;60.30;;;;;;5059247;28;20182;-76
2022/09/01 04:57:06;;;;;;;17.97;4.00;;;22.40;61.30;;;;;;5061710;28;20745;-76
2022/09/01 04:59:34;;;;;;;13.63;3.50;;;23.00;60.00;;;;;;5061099;28;20187;-76
2022/09/01 05:02:02;;;;;;;11.60;3.10;;;22.90;59.70;;;;;;5061978;28;20183;-78
2022/09/01 05:04:34;;;;;;;15.70;3.27;;;23.30;58.90;;;;;;5062872;28;20209;-76
2022/09/01 05:07:05;;;;;;;13.60;2.83;;;23.30;58.80;;;;;;5063651;28;20245;-80
2022/09/01 05:09:37;;;;;;;16.67;3.67;;;23.60;57.60;;;;;;5079211;28;20327;-75
2022/09/01 05:12:10;;;;;;;12.13;2.97;;;24.10;56.50;;;;;;5060674;28;20279;-76
2022/09/01 05:14:43;;;;;;;14.23;3.27;;;23.80;56.20;;;;;;5067102;28;20183;-78
2022/09/01 05:17:12;;;;;;;15.77;3.90;;;23.80;56.90;;;;;;5067747;28;20194;-78
2022/09/01 05:19:42;;;;;;;19.27;3.57;;;23.70;57.70;;;;;;5069661;28;20240;-76
2022/09/01 05:22:12;;;;;;;12.67;3.03;;;24.00;56.20;;;;;;5069140;28;20217;-76
2022/09/01 05:24:39;;;;;;;17.10;3.60;;;23.80;56.10;;;;;;5065465;28;20310;-73
2022/09/01 05:27:07;;;;;;;13.40;3.67;;;23.80;55.90;;;;;;5073517;28;20277;-76
2022/09/01 05:29:36;;;;;;;14.13;3.00;;;23.70;56.50;;;;;;5070046;28;20187;-74
2022/09/01 05:32:08;;;;;;;20.67;4.53;;;22.50;60.10;;;;;;5066157;28;20190;-73
2022/09/01 05:34:37;;;;;;;20.30;8.43;;;21.80;62.50;;;;;;5061737;28;20621;-75
2022/09/01 05:37:07;;;;;;;14.47;5.83;;;21.10;64.40;;;;;;5060290;28;20183;-76
2022/09/01 05:39:36;;;;;;;21.77;9.37;;;20.70;66.30;;;;;;5070636;28;20183;-76
2022/09/01 05:42:06;;;;;;;19.97;5.53;;;20.30;67.10;;;;;;5072591;28;20234;-75
2022/09/01 05:44:42;;;;;;;15.67;3.37;;;20.60;66.50;;;;;;5069408;28;20179;-76
2022/09/01 05:47:15;;;;;;;13.17;3.13;;;21.30;64.60;;;;;;5061557;28;20667;-76
2022/09/01 05:49:43;;;;;;;22.07;7.63;;;21.10;64.00;;;;;;5063561;28;20262;-75
2022/09/01 05:52:10;;;;;;;15.70;6.37;;;20.80;65.20;;;;;;5065393;28;20267;-76
2022/09/01 05:54:37;;;;;;;23.43;8.10;;;20.60;65.60;;;;;;5066493;28;20641;-75
2022/09/01 05:57:06;;;;;;;13.90;3.90;;;20.70;65.80;;;;;;5062678;28;20316;-75
2022/09/01 05:59:34;;;;;;;15.03;3.87;;;20.40;66.40;;;;;;5064408;28;20203;-75
2022/09/01 06:02:02;;;;;;;16.70;3.50;;;20.30;67.40;;;;;;5062642;28;20185;-76
2022/09/01 06:04:30;;;;;;;11.73;3.57;;;20.20;68.20;;;;;;5062600;28;20180;-76
2022/09/01 06:06:57;;;;;;;16.67;3.53;;;20.40;67.10;;;;;;5069109;28;20187;-74
2022/09/01 06:09:25;;;;;;;13.70;3.50;;;21.40;64.50;;;;;;5063031;28;20171;-75
2022/09/01 06:11:54;;;;;;;12.17;2.87;;;21.90;63.20;;;;;;5067939;28;20195;-78
2022/09/01 06:14:21;;;;;;;14.47;2.90;;;22.20;62.40;;;;;;5064936;28;20183;-76
2022/09/01 06:16:49;;;;;;;12.17;2.73;;;22.60;60.60;;;;;;5068423;28;20336;-75
2022/09/01 06:19:19;;;;;;;12.57;2.73;;;21.70;63.00;;;;;;5065997;28;20186;-78
2022/09/01 06:21:47;;;;;;;12.43;2.50;;;21.50;64.30;;;;;;5066759;28;20175;-75
2022/09/01 06:24:15;;;;;;;11.13;3.20;;;21.80;63.20;;;;;;5074075;28;20199;-80
2022/09/01 06:26:45;;;;;;;14.13;2.60;;;21.40;63.70;;;;;;5072305;28;20182;-75
2022/09/01 06:29:14;;;;;;;9.73;3.40;;;20.80;66.80;;;;;;5065733;28;20329;-77
2022/09/01 06:31:44;;;;;;;11.67;2.80;;;20.20;68.50;;;;;;5068041;28;20182;-74
2022/09/01 06:34:16;;;;;;;15.90;3.60;;;19.70;70.30;;;;;;5071159;28;20263;-77
2022/09/01 06:36:47;;;;;;;23.37;6.17;;;19.30;71.40;;;;;;5071901;28;20180;-75
2022/09/01 06:39:20;;;;;;;20.87;6.97;;;19.30;71.80;;;;;;5067068;28;20270;-75
2022/09/01 06:41:51;;;;;;;16.90;3.70;;;19.50;72.00;;;;;;5065446;28;20239;-74
2022/09/01 06:44:22;;;;;;;14.70;3.50;;;20.30;69.10;;;;;;5068782;28;20585;-78
2022/09/01 06:46:51;;;;;;;17.33;3.43;;;20.50;68.40;;;;;;5072153;28;20649;-74
2022/09/01 06:49:20;;;;;;;21.63;7.47;;;20.30;69.00;;;;;;5070546;28;20179;-74
2022/09/01 06:51:48;;;;;;;13.07;4.10;;;20.30;68.80;;;;;;5063071;28;20252;-77
2022/09/01 06:54:16;;;;;;;17.27;3.37;;;19.90;69.60;;;;;;5081703;28;20179;-74
2022/09/01 06:56:43;;;;;;;12.03;3.20;;;19.60;70.80;;;;;;5066063;28;20673;-73
2022/09/01 06:59:14;;;;;;;15.20;3.43;;;19.30;71.70;;;;;;5075140;28;20191;-75
2022/09/01 07:01:42;;;;;;;15.60;3.37;;;19.00;72.80;;;;;;5066397;28;20328;-75
2022/09/01 07:04:11;;;;;;;14.83;3.43;;;18.90;73.30;;;;;;5062808;28;20190;-74
2022/09/01 07:06:40;;;;;;;18.70;3.13;;;18.80;73.70;;;;;;5070925;28;20579;-74
2022/09/01 07:09:08;;;;;;;14.93;3.10;;;18.70;74.40;;;;;;5087811;28;21073;-75
2022/09/01 07:11:51;;;;;;;11.27;3.03;;;18.50;75.20;;;;;;5069870;28;20179;-79
2022/09/01 07:14:20;;;;;;;19.87;4.00;;;18.30;75.90;;;;;;5059643;28;20176;-76
2022/09/01 07:16:47;;;;;;;18.57;3.87;;;18.20;76.50;;;;;;5063836;28;20220;-78
2022/09/01 07:19:21;;;;;;;14.83;3.40;;;18.10;77.10;;;;;;5068818;28;20257;-79
2022/09/01 07:21:49;;;;;;;18.60;3.37;;;18.10;77.10;;;;;;5059776;28;20184;-78
2022/09/01 07:24:17;;;;;;;16.60;3.67;;;18.00;77.40;;;;;;5062562;28;20184;-81
2022/09/01 07:26:48;;;;;;;18.77;3.37;;;17.90;77.90;;;;;;5061364;28;20331;-79
2022/09/01 07:29:20;;;;;;;18.00;4.57;;;17.90;78.30;;;;;;5071956;28;20180;-81
2022/09/01 07:31:48;;;;;;;13.03;3.60;;;17.80;78.50;;;;;;5075541;28;20197;-76
2022/09/01 07:34:16;;;;;;;14.33;3.33;;;17.80;78.80;;;;;;5062382;28;20183;-79
2022/09/01 07:36:51;;;;;;;19.73;3.33;;;17.70;79.10;;;;;;5071795;28;20526;-81
2022/09/01 07:39:18;;;;;;;13.20;2.37;;;17.70;79.20;;;;;;5067854;28;20210;-81
2022/09/01 07:41:49;;;;;;;14.47;2.90;;;17.60;79.50;;;;;;5068966;28;20707;-76
2022/09/01 07:44:16;;;;;;;16.43;3.90;;;17.60;79.60;;;;;;5071409;28;20331;-78
2022/09/01 07:46:47;;;;;;;13.87;3.03;;;17.50;79.80;;;;;;5064836;28;20207;-80
2022/09/01 07:49:14;;;;;;;15.43;3.20;;;17.50;80.00;;;;;;5055583;28;20195;-78
2022/09/01 07:51:42;;;;;;;13.60;2.97;;;17.50;80.20;;;;;;5054347;28;20191;-78
2022/09/01 07:54:12;;;;;;;19.43;3.20;;;17.40;80.50;;;;;;5053903;28;20642;-78
2022/09/01 07:56:40;;;;;;;16.17;3.20;;;17.40;80.70;;;;;;5081520;28;20186;-73
2022/09/01 07:59:08;;;;;;;18.13;2.93;;;17.30;80.90;;;;;;5062993;28;20274;-76
2022/09/01 08:01:35;;;;;;;20.10;2.97;;;17.30;81.00;;;;;;5056889;28;20176;-75
2022/09/01 08:04:03;;;;;;;15.17;3.67;;;17.30;81.20;;;;;;5055133;28;20194;-77
2022/09/01 08:06:30;;;;;;;19.43;3.40;;;17.30;81.30;;;;;;5062597;28;20249;-76
2022/09/01 08:08:59;;;;;;;15.10;4.43;;;17.30;81.50;;;;;;5053326;28;20178;-77
2022/09/01 08:11:29;;;;;;;14.10;3.57;;;17.30;81.60;;;;;;5072787;28;20688;-78
2022/09/01 08:13:58;;;;;;;18.00;4.93;;;17.30;81.70;;;;;;5069124;28;20274;-73
2022/09/01 08:16:27;;;;;;;18.80;4.03;;;17.30;81.60;;;;;;5053928;28;20552;-76
2022/09/01 08:18:54;;;;;;;20.40;4.30;;;17.30;81.70;;;;;;5053915;28;20195;-75
2022/09/01 08:21:23;;;;;;;12.90;3.67;;;17.30;81.50;;;;;;5053689;28;20183;-78
2022/09/01 08:23:53;;;;;;;18.13;4.07;;;17.30;81.40;;;;;;5053309;28;20534;-76
2022/09/01 08:26:23;;;;;;;16.20;3.90;;;17.20;81.30;;;;;;5053334;28;20218;-77
2022/09/01 08:28:52;;;;;;;17.03;3.87;;;17.20;81.30;;;;;;5056212;28;20704;-77
2022/09/01 08:31:20;;;;;;;20.87;4.80;;;17.20;81.00;;;;;;5059687;28;20666;-80
2022/09/01 08:33:49;;;;;;;15.83;3.40;;;17.20;81.10;;;;;;5061966;28;20189;-77
2022/09/01 08:36:18;;;;;;;16.10;3.63;;;17.20;81.10;;;;;;5073387;28;20186;-74
2022/09/01 08:38:46;;;;;;;14.30;3.80;;;17.20;81.10;;;;;;5059786;28;20183;-77
2022/09/01 08:41:27;;;;;;;15.70;3.20;;;17.20;81.10;;;;;;5053015;28;20649;-76
2022/09/01 08:44:09;;;;;;;15.83;3.37;;;17.10;81.30;;;;;;5067182;28;20182;-76
2022/09/01 08:46:42;;;;;;;16.97;3.60;;;17.10;81.60;;;;;;5052670;28;20631;-74
2022/09/01 08:49:13;;;;;;;17.93;3.77;;;17.10;81.90;;;;;;5053033;28;20187;-76
2022/09/01 08:51:58;;;;;;;15.50;3.37;;;17.10;81.90;;;;;;5053433;28;20264;-75
2022/09/01 08:54:36;;;;;;;17.77;2.70;;;17.10;82.10;;;;;;5062614;28;20186;-77
2022/09/01 08:57:22;;;;;;;15.87;3.00;;;17.10;82.10;;;;;;5057882;28;20594;-76
2022/09/01 08:59:51;;;;;;;17.67;3.33;;;17.00;82.20;;;;;;5054559;28;20646;-75
2022/09/01 09:02:58;;;;;;;20.50;3.70;;;17.00;82.30;;;;;;5052154;28;20535;-77
2022/09/01 09:06:10;;;;;;;15.77;3.80;;;17.00;82.40;;;;;;5052028;28;20678;-76
2022/09/01 09:08:56;;;;;;;17.63;3.27;;;17.00;82.40;;;;;;5053118;28;20179;-74
2022/09/01 09:11:49;;;;;;;25.03;3.87;;;17.00;82.60;;;;;;5052794;28;20538;-75
2022/09/01 09:14:33;;;;;;;15.23;3.27;;;17.00;82.50;;;;;;5052541;28;20229;-74
2022/09/01 09:17:03;;;;;;;20.57;4.10;;;17.00;82.60;;;;;;5059982;28;20640;-75
2022/09/01 09:19:41;;;;;;;19.77;3.37;;;17.10;82.60;;;;;;5053201;28;20185;-75
2022/09/01 09:22:13;;;;;;;18.33;3.30;;;17.00;82.60;;;;;;5052157;28;20630;-76
2022/09/01 09:24:54;;;;;;;21.33;3.80;;;17.10;82.50;;;;;;5071164;28;20495;-75
2022/09/01 09:27:42;;;;;;;16.63;3.57;;;17.10;82.60;;;;;;5054433;28;20661;-75
2022/09/01 09:30:25;;;;;;;17.27;3.37;;;17.10;82.70;;;;;;5061860;28;20179;-76
2022/09/01 09:32:59;;;;;;;21.37;3.87;;;17.10;82.70;;;;;;5053018;28;20268;-77
2022/09/01 09:35:44;;;;;;;23.63;4.03;;;17.10;82.70;;;;;;5082905;28;20737;-76
2022/09/01 09:38:31;;;;;;;16.83;3.23;;;17.10;82.80;;;;;;5052463;28;20205;-74
2022/09/01 09:41:04;;;;;;;21.67;3.63;;;17.10;82.80;;;;;;5063153;28;20221;-74
2022/09/01 09:43:36;;;;;;;14.10;3.43;;;17.10;82.60;;;;;;5074959;28;20209;-73
2022/09/01 09:46:26;;;;;;;18.63;3.00;;;17.10;82.40;;;;;;5067389;28;20200;-78
2022/09/01 09:49:23;;;;;;;17.10;3.60;;;17.10;82.40;;;;;;5059703;28;20179;-77
2022/09/01 09:51:54;;;;;;;16.67;3.33;;;17.10;82.40;;;;;;5074071;28;20204;-74
2022/09/01 09:54:28;;;;;;;14.20;2.87;;;17.10;82.50;;;;;;5080182;28;20200;-76
2022/09/01 09:57:16;;;;;;;17.87;3.80;;;17.10;82.40;;;;;;5076265;28;20673;-76
2022/09/01 10:00:23;;;;;;;19.83;3.23;;;17.10;82.40;;;;;;5073759;28;20195;-75
2022/09/01 10:03:01;;;;;;;15.80;3.17;;;17.10;82.60;;;;;;5044302;28;20198;-74
2022/09/01 10:05:34;;;;;;;14.87;3.37;;;17.10;82.50;;;;;;5078289;28;20210;-74
2022/09/01 10:08:06;;;;;;;21.43;3.70;;;17.00;82.60;;;;;;5056170;28;20182;-75
2022/09/01 10:10:49;;;;;;;14.47;3.43;;;17.00;82.70;;;;;;5066505;28;20188;-72
2022/09/01 10:13:23;;;;;;;17.33;3.00;;;17.10;82.40;;;;;;5062311;28;20178;-75
2022/09/01 10:15:56;;;;;;;17.73;3.63;;;17.00;82.60;;;;;;5063765;28;20180;-75
2022/09/01 10:18:38;;;;;;;16.77;3.30;;;17.00;82.70;;;;;;5080472;28;20174;-74
2022/09/01 10:21:15;;;;;;;20.47;3.63;;;17.00;82.80;;;;;;5078696;28;20265;-75
2022/09/01 10:23:43;;;;;;;15.40;3.50;;;17.00;82.90;;;;;;5071873;28;20585;-77
2022/09/01 10:26:23;;;;;;;16.53;3.07;;;16.90;83.10;;;;;;5085869;28;20284;-76
2022/09/01 10:29:06;;;;;;;14.97;3.23;;;16.90;83.10;;;;;;5060234;28;20186;-74
2022/09/01 10:31:35;;;;;;;17.20;3.57;;;16.90;83.30;;;;;;5069588;28;20680;-75
2022/09/01 10:34:05;;;;;;;22.20;3.63;;;16.80;83.40;;;;;;5079516;28;20189;-75
2022/09/01 10:36:35;;;;;;;22.03;3.40;;;16.80;83.50;;;;;;5055770;28;20229;-75
2022/09/01 10:39:04;;;;;;;22.83;3.27;;;16.80;83.70;;;;;;5072531;28;20177;-75
2022/09/01 10:41:52;;;;;;;17.57;3.97;;;16.80;83.80;;;;;;5076456;28;20636;-74
2022/09/01 10:44:35;;;;;;;19.90;3.80;;;16.80;83.90;;;;;;5062733;28;20241;-73
2022/09/01 10:47:22;;;;;;;13.60;3.00;;;16.80;84.00;;;;;;5053898;28;20264;-75
2022/09/01 10:49:49;;;;;;;22.33;3.30;;;16.80;84.20;;;;;;5067785;28;20174;-72
2022/09/01 10:52:41;;;;;;;21.50;3.80;;;16.80;84.50;;;;;;5082935;28;20183;-77
2022/09/01 10:55:17;;;;;;;25.23;3.83;;;16.80;84.60;;;;;;5074079;28;20185;-76
2022/09/01 10:58:20;;;;;;;16.87;3.90;;;16.80;84.70;;;;;;5080597;28;20186;-74
2022/09/01 11:00:50;;;;;;;21.07;4.20;;;16.80;84.90;;;;;;5063636;28;20191;-75
2022/09/01 11:03:17;;;;;;;23.67;4.07;;;16.80;84.90;;;;;;5067821;28;20562;-75
2022/09/01 11:05:54;;;;;;;23.20;4.07;;;16.80;85.10;;;;;;5054229;28;20210;-75
2022/09/01 11:08:27;;;;;;;27.20;3.87;;;16.70;85.20;;;;;;5072305;28;20653;-74
2022/09/01 11:10:57;;;;;;;18.00;3.77;;;16.70;85.30;;;;;;5086689;28;20213;-75
2022/09/01 11:13:48;;;;;;;22.20;3.97;;;16.70;85.30;;;;;;5076903;28;20168;-74
2022/09/01 11:16:40;;;;;;;20.50;4.07;;;16.80;85.30;;;;;;5079482;28;20183;-76
2022/09/01 11:19:23;;;;;;;19.43;3.97;;;16.70;85.20;;;;;;5069840;28;20194;-75
2022/09/01 11:22:14;;;;;;;14.93;3.67;;;16.70;85.40;;;;;;5064282;28;20289;-74
2022/09/01 11:24:41;;;;;;;31.37;5.67;;;16.70;85.60;;;;;;5049136;28;20281;-75
2022/09/01 11:27:32;;;;;;;21.90;4.27;;;16.70;85.60;;;;;;5070960;28;20205;-75
2022/09/01 11:30:02;;;;;;;22.33;5.20;;;16.70;85.60;;;;;;5071482;28;20207;-74
2022/09/01 11:32:35;;;;;;;22.17;4.17;;;16.60;85.80;;;;;;5074324;28;20179;-75
2022/09/01 11:35:14;;;;;;;25.87;4.47;;;16.60;85.80;;;;;;5074225;28;20657;-76
2022/09/01 11:37:42;;;;;;;22.93;3.53;;;16.60;86.10;;;;;;5082923;28;20170;-76
2022/09/01 11:40:11;;;;;;;23.43;4.03;;;16.60;86.20;;;;;;5082232;28;20271;-76
2022/09/01 11:42:43;;;;;;;28.03;5.97;;;16.60;86.20;;;;;;5076032;28;20215;-75
2022/09/01 11:45:18;;;;;;;24.73;4.70;;;16.60;86.10;;;;;;5098063;28;20225;-75
2022/09/01 11:48:07;;;;;;;26.27;4.30;;;16.60;86.00;;;;;;5079459;28;20180;-76
2022/09/01 11:50:37;;;;;;;21.57;4.10;;;16.60;86.20;;;;;;5056045;28;20217;-75
2022/09/01 11:53:21;;;;;;;26.53;4.33;;;16.60;86.20;;;;;;5070621;28;20194;-75
2022/09/01 11:55:51;;;;;;;17.17;3.67;;;16.60;86.30;;;;;;5064776;28;20190;-75
2022/09/01 11:58:29;;;;;;;23.00;4.40;;;16.60;86.20;;;;;;5057113;28;20190;-74
2022/09/01 12:01:18;;;;;;;19.87;4.23;;;16.60;85.80;;;;;;5067389;28;20908;-75
2022/09/01 12:03:48;;;;;;;22.50;4.13;;;16.70;85.40;;;;;;5061441;28;20267;-75
2022/09/01 12:06:25;;;;;;;15.37;3.63;;;16.70;85.20;;;;;;5060930;28;20211;-75
2022/09/01 12:09:04;;;;;;;15.47;3.10;;;16.70;85.00;;;;;;5054249;28;20181;-74
2022/09/01 12:11:34;;;;;;;19.30;3.43;;;16.70;84.60;;;;;;5060228;28;20212;-75
2022/09/01 12:14:18;;;;;;;15.93;3.70;;;16.70;84.30;;;;;;5066777;28;20199;-76
2022/09/01 12:17:04;;;;;;;22.07;3.57;;;16.60;84.50;;;;;;5066155;28;20186;-75
2022/09/01 12:19:37;;;;;;;26.13;3.83;;;16.60;84.50;;;;;;5053254;28;20228;-75
2022/09/01 12:22:18;;;;;;;15.20;3.37;;;16.50;84.60;;;;;;5053581;28;20194;-76
2022/09/01 12:24:49;;;;;;;21.30;4.07;;;16.50;84.50;;;;;;5069212;28;20179;-75
2022/09/01 12:27:17;;;;;;;17.60;3.47;;;16.50;84.40;;;;;;5056748;28;20806;-74
2022/09/01 12:29:45;;;;;;;17.70;3.87;;;16.40;84.50;;;;;;5062697;28;20192;-76
2022/09/01 12:32:16;;;;;;;17.93;3.90;;;16.40;84.50;;;;;;5053118;28;20206;-76
2022/09/01 12:34:48;;;;;;;14.47;3.90;;;16.40;84.40;;;;;;5073753;28;20637;-77
2022/09/01 12:37:23;;;;;;;19.63;4.03;;;16.40;84.40;;;;;;5067751;28;20210;-77
2022/09/01 12:39:58;;;;;;;18.50;3.63;;;16.40;84.30;;;;;;5052005;28;20589;-75
2022/09/01 12:42:31;;;;;;;19.50;3.33;;;16.30;84.50;;;;;;5057672;28;20684;-75
2022/09/01 12:45:01;;;;;;;22.50;3.53;;;16.30;84.50;;;;;;5061495;28;20258;-75
2022/09/01 12:47:48;;;;;;;16.97;3.40;;;16.30;84.60;;;;;;5062416;28;20184;-77
2022/09/01 12:50:16;;;;;;;22.80;3.40;;;16.20;84.90;;;;;;5053478;28;20181;-75
2022/09/01 12:52:49;;;;;;;15.77;3.40;;;16.10;85.30;;;;;;5053335;28;20262;-76
2022/09/01 12:55:22;;;;;;;17.93;3.43;;;16.10;85.40;;;;;;5060326;28;20235;-75
2022/09/01 12:58:01;;;;;;;20.23;2.87;;;16.00;85.50;;;;;;5077789;28;20261;-76
2022/09/01 13:00:34;;;;;;;22.80;3.60;;;16.00;85.60;;;;;;5062253;28;20185;-76
2022/09/01 13:03:20;;;;;;;21.33;4.47;;;16.00;85.70;;;;;;5052553;28;20181;-76
2022/09/01 13:05:51;;;;;;;18.03;3.70;;;15.90;85.70;;;;;;5051828;28;20224;-77
2022/09/01 13:08:27;;;;;;;19.63;3.50;;;15.90;85.80;;;;;;5060913;28;20705;-76
2022/09/01 13:10:59;;;;;;;18.27;3.20;;;15.80;86.10;;;;;;5052590;28;20199;-75
2022/09/01 13:13:27;;;;;;;26.87;3.83;;;15.80;86.40;;;;;;5053578;28;20171;-76